createdAt,value
2022-11-07T00:01:39.891Z,8.40
2022-11-07T00:04:06.790Z,8.40
2022-11-07T00:06:33.807Z,8.30
2022-11-07T00:09:00.658Z,8.40
2022-11-07T00:11:27.482Z,8.30
2022-11-07T00:13:55.038Z,8.40
2022-11-07T00:16:22.702Z,8.30
2022-11-07T00:18:49.538Z,8.40
2022-11-07T00:21:16.633Z,8.40
2022-11-07T00:23:43.471Z,8.40
2022-11-07T00:26:12.867Z,8.30
2022-11-07T00:28:42.520Z,8.40
2022-11-07T00:31:11.070Z,8.40
2022-11-07T00:33:37.934Z,8.60
2022-11-07T00:36:05.572Z,8.60
2022-11-07T00:38:32.824Z,8.60
2022-11-07T00:41:05.308Z,8.60
2022-11-07T00:43:33.107Z,8.60
2022-11-07T00:46:04.407Z,8.60
2022-11-07T00:48:32.167Z,8.70
2022-11-07T00:51:06.688Z,8.60
2022-11-07T00:53:33.601Z,8.60
2022-11-07T00:56:05.343Z,8.70
2022-11-07T00:58:32.747Z,8.80
2022-11-07T01:01:00.575Z,8.70
2022-11-07T01:03:45.886Z,8.70
2022-11-07T01:06:12.968Z,8.60
2022-11-07T01:08:39.918Z,8.60
2022-11-07T01:11:07.569Z,8.60
2022-11-07T01:13:34.998Z,8.60
2022-11-07T01:16:02.289Z,8.70
2022-11-07T01:18:30.525Z,8.70
2022-11-07T01:20:57.416Z,8.70
2022-11-07T01:23:24.252Z,8.70
2022-11-07T01:25:51.085Z,8.70
2022-11-07T01:28:18.263Z,8.70
2022-11-07T01:30:45.866Z,8.70
2022-11-07T01:33:13.447Z,8.70
2022-11-07T01:35:41.559Z,8.70
2022-11-07T01:38:08.635Z,8.70
2022-11-07T01:41:02.030Z,8.70
2022-11-07T01:44:00.680Z,8.70
2022-11-07T01:46:55.492Z,8.90
2022-11-07T01:49:27.711Z,8.90
2022-11-07T01:52:17.281Z,8.80
2022-11-07T01:55:09.828Z,8.80
2022-11-07T01:57:54.029Z,8.90
2022-11-07T02:00:23.212Z,8.90
2022-11-07T02:02:55.719Z,8.90
2022-11-07T02:05:29.104Z,8.90
2022-11-07T02:07:56.805Z,8.80
2022-11-07T02:10:24.478Z,8.90
2022-11-07T02:12:51.766Z,8.80
2022-11-07T02:15:19.039Z,8.70
2022-11-07T02:17:45.910Z,8.70
2022-11-07T02:20:13.076Z,8.70
2022-11-07T02:22:53.989Z,8.70
2022-11-07T02:25:20.884Z,8.70
2022-11-07T02:27:51.674Z,8.70
2022-11-07T02:30:22.840Z,8.80
2022-11-07T02:32:50.012Z,8.80
2022-11-07T02:35:41.821Z,8.70
2022-11-07T02:38:14.215Z,8.80
2022-11-07T02:40:41.846Z,8.80
2022-11-07T02:43:10.382Z,8.80
2022-11-07T02:45:41.133Z,8.70
2022-11-07T02:48:08.065Z,8.70
2022-11-07T02:50:34.918Z,8.60
2022-11-07T02:53:01.914Z,8.60
2022-11-07T02:55:28.775Z,8.70
2022-11-07T02:57:55.617Z,8.80
2022-11-07T03:00:22.567Z,8.90
2022-11-07T03:02:49.989Z,8.80
2022-11-07T03:05:18.770Z,8.70
2022-11-07T03:07:46.901Z,8.70
2022-11-07T03:10:15.713Z,8.70
2022-11-07T03:12:43.104Z,8.70
2022-11-07T03:15:11.759Z,8.90
2022-11-07T03:17:38.696Z,8.90
2022-11-07T03:20:06.177Z,8.80
2022-11-07T03:22:33.047Z,8.80
2022-11-07T03:24:59.912Z,8.80
2022-11-07T03:27:26.785Z,8.80
2022-11-07T03:29:53.601Z,8.80
2022-11-07T03:32:20.467Z,9.00
2022-11-07T03:34:47.314Z,8.90
2022-11-07T03:37:14.209Z,8.80
2022-11-07T03:39:41.139Z,8.80
2022-11-07T03:42:08.009Z,8.80
2022-11-07T03:44:34.838Z,8.80
2022-11-07T03:47:01.923Z,8.80
2022-11-07T03:49:28.763Z,8.80
2022-11-07T03:51:55.650Z,8.80
2022-11-07T03:54:22.544Z,8.90
2022-11-07T03:56:49.377Z,8.90
2022-11-07T03:59:16.188Z,8.80
2022-11-07T04:01:43.403Z,8.90
2022-11-07T04:04:10.489Z,8.90
2022-11-07T04:06:37.442Z,8.90
2022-11-07T04:09:04.743Z,8.90
2022-11-07T04:11:50.326Z,8.80
2022-11-07T04:14:35.710Z,8.70
2022-11-07T04:17:20.616Z,8.90
2022-11-07T04:19:49.035Z,8.90
2022-11-07T04:22:16.044Z,8.90
2022-11-07T04:24:45.983Z,8.80
2022-11-07T04:27:33.400Z,8.80
2022-11-07T04:30:19.001Z,8.90
2022-11-07T04:32:52.499Z,8.80
2022-11-07T04:35:20.272Z,8.70
2022-11-07T04:37:48.041Z,8.70
2022-11-07T04:40:16.623Z,8.60
2022-11-07T04:42:44.811Z,8.60
2022-11-07T04:45:12.743Z,8.70
2022-11-07T04:47:40.791Z,8.80
2022-11-07T04:50:10.299Z,8.70
2022-11-07T04:52:37.709Z,8.80
2022-11-07T04:55:07.010Z,8.80
2022-11-07T04:57:33.845Z,8.70
2022-11-07T05:00:00.731Z,8.80
2022-11-07T05:02:28.026Z,8.80
2022-11-07T05:04:55.005Z,8.80
2022-11-07T05:07:21.856Z,8.90
2022-11-07T05:09:48.726Z,8.90
2022-11-07T05:12:15.556Z,8.90
2022-11-07T05:14:42.398Z,9.00
2022-11-07T05:17:13.581Z,9.00
2022-11-07T05:19:43.153Z,8.90
2022-11-07T05:22:46.612Z,9.00
2022-11-07T05:25:13.454Z,9.00
2022-11-07T05:27:40.336Z,9.00
2022-11-07T05:30:08.529Z,8.90
2022-11-07T05:32:38.361Z,9.00
2022-11-07T05:35:06.005Z,9.00
2022-11-07T05:37:32.968Z,9.00
2022-11-07T05:39:59.815Z,9.00
2022-11-07T05:42:26.625Z,9.00
2022-11-07T05:44:53.509Z,9.00
2022-11-07T05:47:20.345Z,9.00
2022-11-07T05:49:47.168Z,9.00
2022-11-07T05:52:14.054Z,9.00
2022-11-07T05:54:40.920Z,9.00
2022-11-07T05:57:07.754Z,9.00
2022-11-07T05:59:34.706Z,9.10
2022-11-07T06:02:01.620Z,9.10
2022-11-07T06:04:28.573Z,9.10
2022-11-07T06:06:55.835Z,9.10
2022-11-07T06:09:22.682Z,9.10
2022-11-07T06:11:49.491Z,9.10
2022-11-07T06:14:17.224Z,9.10
2022-11-07T06:16:44.075Z,9.10
2022-11-07T06:19:10.910Z,9.10
2022-11-07T06:21:37.864Z,9.20
2022-11-07T06:24:05.004Z,9.10
2022-11-07T06:26:31.805Z,9.20
2022-11-07T06:28:58.669Z,9.20
2022-11-07T06:31:25.534Z,9.20
2022-11-07T06:33:52.582Z,9.20
2022-11-07T06:36:19.652Z,9.20
2022-11-07T06:38:50.598Z,9.10
2022-11-07T06:41:17.488Z,9.10
2022-11-07T06:43:44.397Z,9.30
2022-11-07T06:46:13.777Z,9.30
2022-11-07T06:48:40.612Z,9.40
2022-11-07T06:51:09.931Z,9.30
2022-11-07T06:53:37.824Z,9.40
2022-11-07T06:56:07.167Z,9.40
2022-11-07T06:58:34.614Z,9.40
2022-11-07T07:01:06.253Z,9.40
2022-11-07T07:03:33.176Z,9.40
2022-11-07T07:06:05.672Z,9.40
2022-11-07T07:08:33.121Z,9.40
2022-11-07T07:11:08.691Z,9.50
2022-11-07T07:13:35.815Z,9.50
2022-11-07T07:16:03.205Z,9.50
2022-11-07T07:18:30.721Z,9.50
2022-11-07T07:21:09.638Z,9.50
2022-11-07T07:23:37.737Z,9.50
2022-11-07T07:26:13.978Z,9.60
2022-11-07T07:28:41.232Z,9.50
2022-11-07T07:31:13.921Z,9.60
2022-11-07T07:33:41.847Z,9.60
2022-11-07T07:36:09.514Z,9.60
2022-11-07T07:38:36.485Z,9.60
2022-11-07T07:41:03.789Z,9.60
2022-11-07T07:43:31.178Z,9.70
2022-11-07T07:46:02.962Z,9.80
2022-11-07T07:48:30.096Z,9.70
2022-11-07T07:50:57.481Z,9.70
2022-11-07T07:53:24.753Z,9.60
2022-11-07T07:55:59.953Z,9.70
2022-11-07T07:58:27.373Z,9.80
2022-11-07T08:00:58.357Z,9.80
2022-11-07T08:03:29.340Z,9.80
2022-11-07T08:06:02.610Z,9.90
2022-11-07T08:08:33.822Z,9.80
2022-11-07T08:11:06.119Z,9.80
2022-11-07T08:13:34.099Z,9.80
2022-11-07T08:16:03.351Z,9.80
2022-11-07T08:18:30.466Z,9.90
2022-11-07T08:20:57.457Z,9.80
2022-11-07T08:23:24.918Z,9.90
2022-11-07T08:25:57.459Z,9.90
2022-11-07T08:28:29.277Z,10.00
2022-11-07T08:31:01.350Z,10.00
2022-11-07T08:33:28.945Z,10.10
2022-11-07T08:35:57.278Z,10.10
2022-11-07T08:38:24.210Z,10.10
2022-11-07T08:40:51.888Z,10.20
2022-11-07T08:43:19.899Z,10.20
2022-11-07T08:45:47.914Z,10.20
2022-11-07T08:48:15.990Z,10.10
2022-11-07T08:50:43.207Z,10.10
2022-11-07T08:53:10.759Z,10.10
2022-11-07T08:55:38.001Z,10.10
2022-11-07T08:58:06.832Z,10.10
2022-11-07T09:00:34.767Z,10.10
2022-11-07T09:05:51.225Z,10.20
2022-11-07T09:08:19.284Z,10.20
2022-11-07T09:10:46.177Z,10.20
2022-11-07T09:13:15.270Z,10.10
2022-11-07T09:15:47.661Z,10.20
2022-11-07T09:18:16.391Z,10.20
2022-11-07T09:20:43.277Z,10.30
2022-11-07T09:23:10.257Z,10.40
2022-11-07T09:25:37.356Z,10.30
2022-11-07T09:28:04.498Z,10.30
2022-11-07T09:30:31.748Z,10.30
2022-11-07T09:32:58.832Z,10.20
2022-11-07T09:35:26.040Z,10.40
2022-11-07T09:37:53.050Z,10.50
2022-11-07T09:40:19.894Z,10.40
2022-11-07T09:42:57.326Z,10.60
2022-11-07T09:45:24.221Z,10.70
2022-11-07T09:48:00.427Z,10.60
2022-11-07T09:50:34.130Z,10.50
2022-11-07T09:53:38.505Z,10.70
2022-11-07T09:56:07.926Z,10.70
2022-11-07T09:58:42.389Z,10.70
2022-11-07T10:01:15.873Z,10.80
2022-11-07T10:03:58.102Z,10.60
2022-11-07T10:06:39.133Z,10.80
2022-11-07T10:09:12.404Z,10.80
2022-11-07T10:11:42.600Z,10.80
2022-11-07T10:14:28.318Z,10.60
2022-11-07T10:16:55.188Z,10.50
2022-11-07T10:19:28.160Z,10.70
2022-11-07T10:22:10.087Z,10.70
2022-11-07T10:25:21.344Z,10.70
2022-11-07T10:28:05.338Z,10.60
2022-11-07T10:30:32.183Z,10.60
2022-11-07T10:33:08.491Z,10.50
2022-11-07T10:35:41.290Z,10.40
2022-11-07T10:38:27.446Z,10.60
2022-11-07T10:40:55.138Z,10.70
2022-11-07T10:43:37.862Z,10.70
2022-11-07T10:46:11.194Z,10.70
2022-11-07T10:48:38.105Z,10.70
2022-11-07T10:51:04.976Z,10.70
2022-11-07T10:53:31.800Z,10.70
2022-11-07T10:55:58.675Z,10.70
2022-11-07T10:58:29.806Z,10.80
2022-11-07T11:01:22.876Z,10.80
2022-11-07T11:03:49.965Z,10.70
2022-11-07T11:06:27.125Z,10.60
2022-11-07T11:08:54.124Z,10.70
2022-11-07T11:11:34.996Z,10.70
2022-11-07T11:14:09.124Z,10.80
2022-11-07T11:16:38.749Z,10.80
2022-11-07T11:19:06.924Z,10.90
2022-11-07T11:21:45.335Z,10.80
2022-11-07T11:24:27.202Z,10.90
2022-11-07T11:26:55.252Z,10.80
2022-11-07T11:29:36.748Z,10.80
2022-11-07T11:32:18.262Z,10.80
2022-11-07T11:34:51.143Z,10.80
2022-11-07T11:37:23.969Z,10.80
2022-11-07T11:40:17.026Z,10.80
2022-11-07T11:42:47.854Z,10.90
2022-11-07T11:45:35.739Z,10.80
2022-11-07T11:48:25.208Z,10.90
2022-11-07T11:50:55.304Z,10.80
2022-11-07T11:53:23.321Z,10.80
2022-11-07T11:56:22.959Z,10.90
2022-11-07T11:59:23.990Z,10.90
2022-11-07T12:02:15.021Z,10.90
2022-11-07T12:04:50.773Z,10.90
2022-11-07T12:07:32.534Z,10.90
2022-11-07T12:10:27.017Z,11.10
2022-11-07T12:13:11.732Z,11.20
2022-11-07T12:16:08.537Z,11.30
2022-11-07T12:18:47.657Z,11.20
2022-11-07T12:21:39.274Z,11.40
2022-11-07T12:24:15.391Z,11.20
2022-11-07T12:27:00.345Z,11.20
2022-11-07T12:29:47.653Z,11.40
2022-11-07T12:32:44.880Z,11.40
2022-11-07T12:35:35.175Z,11.40
2022-11-07T12:38:35.776Z,11.50
2022-11-07T12:41:38.846Z,11.40
2022-11-07T12:44:33.439Z,11.50
2022-11-07T12:47:17.885Z,11.50
2022-11-07T12:50:02.816Z,11.50
2022-11-07T12:52:49.936Z,11.50
2022-11-07T12:55:25.316Z,11.50
2022-11-07T12:57:54.763Z,11.60
2022-11-07T13:00:29.965Z,11.50
2022-11-07T13:03:25.140Z,11.30
2022-11-07T13:06:07.157Z,11.30
2022-11-07T13:08:42.983Z,11.30
2022-11-07T13:11:46.956Z,11.30
2022-11-07T13:14:23.703Z,11.30
2022-11-07T13:16:51.159Z,11.20
2022-11-07T13:19:32.978Z,11.20
2022-11-07T13:22:07.711Z,11.20
2022-11-07T13:24:39.059Z,11.30
2022-11-07T13:27:24.901Z,11.30
2022-11-07T13:29:52.049Z,11.20
2022-11-07T13:32:19.011Z,11.20
2022-11-07T13:34:48.718Z,11.30
2022-11-07T13:37:32.594Z,11.40
2022-11-07T13:40:18.270Z,11.40
2022-11-07T13:42:46.251Z,11.40
2022-11-07T13:45:29.811Z,11.40
2022-11-07T13:48:00.320Z,11.20
2022-11-07T13:51:04.942Z,11.10
2022-11-07T13:54:10.359Z,11.10
2022-11-07T13:57:27.306Z,11.10
2022-11-07T14:00:15.213Z,11.20
2022-11-07T14:02:56.952Z,11.30
2022-11-07T14:05:29.602Z,11.20
2022-11-07T14:08:00.382Z,11.20
2022-11-07T14:10:47.336Z,11.20
2022-11-07T14:13:25.534Z,11.20
2022-11-07T14:15:56.388Z,11.20
2022-11-07T14:18:26.802Z,11.30
2022-11-07T14:20:58.977Z,11.00
2022-11-07T14:23:28.367Z,11.00
2022-11-07T14:25:58.523Z,11.10
2022-11-07T14:28:29.806Z,10.90
2022-11-07T14:30:56.639Z,11.00
2022-11-07T14:33:23.655Z,10.90
2022-11-07T14:35:52.512Z,10.90
2022-11-07T14:38:25.693Z,10.90
2022-11-07T14:40:54.350Z,10.80
2022-11-07T14:43:24.228Z,10.80
2022-11-07T14:46:15.556Z,10.90
2022-11-07T14:48:44.099Z,10.80
2022-11-07T14:51:17.287Z,10.80
2022-11-07T14:53:50.040Z,10.80
2022-11-07T14:56:20.023Z,10.80
2022-11-07T14:58:47.368Z,10.70
2022-11-07T15:01:23.721Z,10.70
2022-11-07T15:04:00.555Z,10.60
2022-11-07T15:06:41.035Z,10.60
2022-11-07T15:09:08.893Z,10.50
2022-11-07T15:11:38.961Z,10.40
2022-11-07T15:14:34.806Z,10.50
2022-11-07T15:17:04.404Z,10.50
2022-11-07T15:19:34.012Z,10.60
2022-11-07T15:22:03.370Z,10.60
2022-11-07T15:24:36.112Z,10.50
2022-11-07T15:27:21.154Z,10.40
2022-11-07T15:29:57.127Z,10.40
2022-11-07T15:32:26.790Z,10.30
2022-11-07T15:35:30.330Z,10.30
2022-11-07T15:37:59.264Z,10.40
2022-11-07T15:40:27.540Z,10.30
2022-11-07T15:42:54.559Z,10.20
2022-11-07T15:45:22.026Z,10.20
2022-11-07T15:47:49.448Z,10.20
2022-11-07T15:50:18.559Z,10.20
2022-11-07T15:52:47.595Z,10.10
2022-11-07T15:55:17.305Z,10.00
2022-11-07T15:57:46.169Z,10.00
2022-11-07T16:00:30.912Z,9.90
2022-11-07T16:02:58.983Z,9.90
2022-11-07T16:05:25.889Z,9.80
2022-11-07T16:07:53.262Z,9.80
2022-11-07T16:10:26.183Z,9.80
2022-11-07T16:12:53.856Z,9.70
2022-11-07T16:15:23.699Z,9.70
2022-11-07T16:17:50.843Z,9.60
2022-11-07T16:20:23.960Z,9.50
2022-11-07T16:22:51.018Z,9.50
2022-11-07T16:25:22.403Z,9.40
2022-11-07T16:27:55.275Z,9.40
2022-11-07T16:30:22.700Z,9.40
2022-11-07T16:32:49.585Z,9.30
2022-11-07T16:35:16.787Z,9.40
2022-11-07T16:37:43.643Z,9.40
2022-11-07T16:40:18.251Z,9.40
2022-11-07T16:42:45.897Z,9.40
2022-11-07T16:45:16.363Z,9.40
2022-11-07T16:47:44.507Z,9.40
2022-11-07T16:50:16.107Z,9.40
2022-11-07T16:52:43.013Z,9.50
2022-11-07T16:55:17.938Z,9.50
2022-11-07T16:57:45.884Z,9.50
2022-11-07T17:00:22.985Z,9.60
2022-11-07T17:02:50.380Z,9.60
2022-11-07T17:05:17.649Z,9.60
2022-11-07T17:07:44.552Z,9.60
2022-11-07T17:10:16.118Z,9.60
2022-11-07T17:12:43.338Z,9.60
2022-11-07T17:15:10.703Z,9.60
2022-11-07T17:17:37.594Z,9.60
2022-11-07T17:20:05.946Z,9.80
2022-11-07T17:22:33.388Z,9.70
2022-11-07T17:25:00.329Z,9.80
2022-11-07T17:27:27.309Z,9.80
2022-11-07T17:29:54.975Z,9.80
2022-11-07T17:32:21.898Z,9.80
2022-11-07T17:34:59.526Z,9.70
2022-11-07T17:37:35.876Z,9.80
2022-11-07T17:40:02.726Z,9.80
2022-11-07T17:42:32.612Z,9.80
2022-11-07T17:45:04.027Z,9.70
2022-11-07T17:47:34.171Z,9.80
2022-11-07T17:50:01.532Z,9.70
2022-11-07T17:52:28.976Z,9.80
2022-11-07T17:54:55.812Z,9.70
2022-11-07T17:57:23.032Z,9.70
2022-11-07T17:59:50.124Z,9.80
2022-11-07T18:02:18.727Z,9.70
2022-11-07T18:04:46.801Z,9.70
2022-11-07T18:07:13.724Z,9.80
2022-11-07T18:09:41.558Z,9.80
2022-11-07T18:12:09.935Z,9.80
2022-11-07T18:14:37.419Z,9.70
2022-11-07T18:17:04.935Z,9.80
2022-11-07T18:19:31.987Z,9.70
2022-11-07T18:21:59.411Z,9.70
2022-11-07T18:24:26.377Z,9.70
2022-11-07T18:26:53.558Z,9.70
2022-11-07T18:29:20.989Z,9.70
2022-11-07T18:31:49.783Z,9.70
2022-11-07T18:34:16.849Z,9.70
2022-11-07T18:36:45.224Z,9.60
2022-11-07T18:39:12.083Z,9.60
2022-11-07T18:41:38.925Z,9.60
2022-11-07T18:44:06.251Z,9.60
2022-11-07T18:46:33.731Z,9.60
2022-11-07T18:49:00.711Z,9.50
2022-11-07T18:51:27.790Z,9.50
2022-11-07T18:53:55.245Z,9.50
2022-11-07T18:56:22.436Z,9.50
2022-11-07T18:58:49.451Z,9.40
2022-11-07T19:01:28.171Z,9.40
2022-11-07T19:03:58.133Z,9.40
2022-11-07T19:06:26.681Z,9.30
2022-11-07T19:08:54.081Z,9.40
2022-11-07T19:11:29.454Z,9.30
2022-11-07T19:14:00.223Z,9.30
2022-11-07T19:16:27.477Z,9.30
2022-11-07T19:18:54.428Z,9.30
2022-11-07T19:21:23.472Z,9.20
2022-11-07T19:23:51.000Z,9.20
2022-11-07T19:26:19.315Z,9.20
2022-11-07T19:28:47.247Z,9.20
2022-11-07T19:31:14.651Z,9.10
2022-11-07T19:33:43.039Z,9.10
2022-11-07T19:36:15.958Z,9.10
2022-11-07T19:38:44.627Z,9.10
2022-11-07T19:41:12.779Z,9.00
2022-11-07T19:43:42.456Z,9.10
2022-11-07T19:46:15.428Z,9.10
2022-11-07T19:48:42.924Z,9.00
2022-11-07T19:51:19.846Z,8.90
2022-11-07T19:53:53.875Z,8.90
2022-11-07T19:56:20.861Z,8.90
2022-11-07T19:58:48.111Z,8.80
2022-11-07T20:01:20.704Z,9.00
2022-11-07T20:03:49.443Z,8.90
2022-11-07T20:06:20.032Z,8.80
2022-11-07T20:08:47.031Z,8.80
2022-11-07T20:11:15.964Z,8.80
2022-11-07T20:13:43.567Z,8.80
2022-11-07T20:16:11.080Z,8.80
2022-11-07T20:18:39.190Z,8.80
2022-11-07T20:21:10.463Z,8.80
2022-11-07T20:23:37.304Z,8.80
2022-11-07T20:26:17.826Z,8.80
2022-11-07T20:28:46.681Z,8.90
2022-11-07T20:31:20.643Z,8.90
2022-11-07T20:33:47.934Z,8.90
2022-11-07T20:36:16.317Z,8.90
2022-11-07T20:38:44.115Z,8.90
2022-11-07T20:41:12.487Z,8.90
2022-11-07T20:43:40.277Z,8.90
2022-11-07T20:46:10.224Z,9.00
2022-11-07T20:48:38.235Z,9.00
2022-11-07T20:51:13.784Z,8.90
2022-11-07T20:53:46.831Z,9.00
2022-11-07T20:56:17.987Z,9.00
2022-11-07T20:58:45.313Z,9.00
2022-11-07T21:01:14.714Z,9.00
2022-11-07T21:03:41.714Z,9.00
2022-11-07T21:06:11.543Z,9.00
2022-11-07T21:08:40.037Z,9.00
2022-11-07T21:11:07.584Z,9.10
2022-11-07T21:13:35.100Z,9.20
2022-11-07T21:16:02.189Z,9.40
2022-11-07T21:18:29.250Z,9.30
2022-11-07T21:21:09.685Z,9.30
2022-11-07T21:23:38.202Z,9.20
2022-11-07T21:26:09.783Z,9.10
2022-11-07T21:28:40.499Z,9.10
2022-11-07T21:31:10.547Z,9.20
2022-11-07T21:33:37.729Z,9.10
2022-11-07T21:36:09.818Z,9.20
2022-11-07T21:38:37.726Z,9.10
2022-11-07T21:41:05.994Z,9.20
2022-11-07T21:43:33.024Z,9.20
2022-11-07T21:46:15.471Z,9.20
2022-11-07T21:48:42.996Z,9.10
2022-11-07T21:51:23.652Z,9.20
2022-11-07T21:53:50.844Z,9.10
2022-11-07T21:56:23.827Z,9.20
2022-11-07T21:58:52.666Z,9.20
2022-11-07T22:01:21.057Z,9.20
2022-11-07T22:04:06.186Z,9.20
2022-11-07T22:06:36.045Z,9.10
2022-11-07T22:09:04.561Z,9.20
2022-11-07T22:11:31.558Z,9.10
2022-11-07T22:13:58.487Z,9.30
2022-11-07T22:16:25.548Z,9.30
2022-11-07T22:18:52.511Z,9.20
2022-11-07T22:21:21.854Z,9.20
2022-11-07T22:23:49.603Z,9.10
2022-11-07T22:26:22.537Z,9.20
2022-11-07T22:28:49.990Z,9.20
2022-11-07T22:31:18.149Z,9.10
2022-11-07T22:33:45.092Z,9.30
2022-11-07T22:36:13.056Z,9.20
2022-11-07T22:38:40.653Z,9.20
2022-11-07T22:41:11.568Z,9.20
2022-11-07T22:43:38.737Z,9.40
2022-11-07T22:46:11.833Z,9.30
2022-11-07T22:48:39.208Z,9.10
2022-11-07T22:51:08.262Z,9.20
2022-11-07T22:53:35.625Z,9.20
2022-11-07T22:56:11.380Z,9.40
2022-11-07T22:58:38.772Z,9.20
2022-11-07T23:01:07.715Z,9.40
2022-11-07T23:03:34.951Z,9.20
2022-11-07T23:06:05.442Z,9.10
2022-11-07T23:08:35.651Z,9.00
2022-11-07T23:14:01.566Z,9.00
2022-11-07T23:16:34.085Z,9.00
2022-11-07T23:19:04.061Z,8.90
2022-11-07T23:21:31.511Z,8.80
2022-11-07T23:23:59.887Z,8.80
2022-11-07T23:26:33.824Z,8.70
2022-11-07T23:29:10.352Z,8.80
2022-11-07T23:31:38.050Z,8.70
2022-11-07T23:34:04.959Z,8.70
2022-11-07T23:36:31.746Z,8.60
2022-11-07T23:39:06.693Z,8.60
2022-11-07T23:41:34.073Z,8.50
2022-11-07T23:44:00.995Z,8.60
2022-11-07T23:46:46.421Z,8.70
2022-11-07T23:49:32.052Z,8.80
2022-11-07T23:51:58.918Z,8.80
2022-11-07T23:54:44.653Z,8.80
2022-11-07T23:57:11.814Z,8.70
2022-11-07T23:59:57.104Z,8.90
